• Join FlightAware (Why Join?)
  • Login
  • US Flag 
12:09PM EDT


 

Airport Tracker/Info


-or-


 

Live Flight TrackerFlight Track Log ✈ BOE1 ✈ 16-Jul-2008 ✈ KPAE - KBFI

Flight Track Log - Related Links

Times and Time Zones

All times are in EDT time to prevent confusion due to time zone crossing. See the BOE1 flight status page for this flight to view local times or setup timezone preferences in your user account.

Time Position Orientation Groundspeed Altitude Reporting Facility
EDT Latitude Longitude Course Direction KTS MPH feet Rate Location/Type
01:55PM 47.9356 -122.2860 354° North 250 288 2,300  Level
01:56PM 48.0019 -122.2960 306° West 250 288 4,200 2,460 Climbing C
01:57PM 48.0436 -122.3810 287° West 220 253 7,300 3,420 Climbing C
01:58PM 48.0625 -122.4750 277° West 211 243 11,100 3,300 Climbing C
01:59PM 48.0689 -122.5560 278° West 217 250 13,900 2,400 Climbing C
02:00PM 48.0803 -122.6840 278° West 244 281 15,900 1,020 Climbing C
02:01PM 48.0903 -122.7930 276° West 264 304 16,000  Climbing C
02:02PM 48.0978 -122.9020 278° West 264 304 16,000  Level
02:03PM 48.1075 -123.0090 277° West 264 304 16,000  Level
02:04PM 48.1153 -123.0990 278° West 264 304 16,000  Level
02:05PM 48.1264 -123.2180 274° West 269 310 16,000 -60 Level
02:06PM 48.1317 -123.3240 276° West 269 310 15,900 -60 Descending D
02:07PM 48.1389 -123.4330 279° West 269 310 15,900  Level
02:08PM 48.1500 -123.5400 259° West 269 310 15,900  Level
02:09PM 48.1392 -123.6230 180° South 269 310 15,900  Level
02:10PM 48.0494 -123.6220 172° South 202 232 15,900  Level
02:11PM 47.9731 -123.6050 171° South 232 267 16,000  Climbing C
02:12PM 47.8947 -123.5870 170° South 264 304 16,000  Level
02:13PM 47.8161 -123.5660 169° South 286 329 16,000  Level
02:14PM 47.7400 -123.5450 169° South 291 335 16,000  Level
02:15PM 47.6533 -123.5200 170° South 291 335 16,000  Level
02:16PM 47.5769 -123.5000 171° South 291 335 16,000  Level
02:17PM 47.5147 -123.4860 170° South 291 335 16,000  Level
02:18PM 47.4219 -123.4610 172° South 291 335 16,000  Level
02:19PM 47.3433 -123.4440 168° South 291 335 16,000  Level
02:20PM 47.2669 -123.4210 101° East 291 335 16,000  Level
02:21PM 47.2536 -123.3190 North 208 239 16,000  Level
02:22PM 47.3264 -123.3170 331° Northwest 104 120 16,000  Level
02:23PM 47.3792 -123.3610 332° Northwest 159 183 16,000  Level
02:24PM 47.4564 -123.4210 346° North 220 253 16,000  Level
02:25PM 47.5286 -123.4470 348° North 247 284 16,000  Level
02:26PM 47.5800 -123.4630 348° North 265 305 16,000  Level
02:27PM 47.6667 -123.4910 348° North 265 305 16,000  Level
02:28PM 47.7367 -123.5140 349° North 265 305 16,000  Level
02:29PM 47.8089 -123.5340 347° North 265 305 16,000  Level
02:30PM 47.8811 -123.5580 349° North 260 299 16,000  Level
02:31PM 47.9511 -123.5780 348° North 260 299 16,000  Level
02:32PM 48.0253 -123.6020 348° North 260 299 16,000 -60 Level
02:33PM 48.0789 -123.6190 318° Northwest 255 293 15,900 -60 Descending D
02:34PM 48.1347 -123.6940 204° Southwest 239 275 15,900  Level
02:35PM 48.0728 -123.7360 154° Southeast 141 162 15,900  Level
02:36PM 48.0017 -123.6840 155° Southeast 170 196 16,000  Climbing C
02:37PM 47.9286 -123.6320 153° Southeast 245 282 16,000 -60 Level
02:38PM 47.8614 -123.5810 167° South 259 298 15,900  Descending D
02:39PM 47.7833 -123.5540 174° South 270 311 16,000  Climbing C
02:40PM 47.7233 -123.5440 173° South 246 283 15,900  Descending D
02:41PM 47.6653 -123.5340 179° South 226 260 16,000  Climbing C
02:42PM 47.6092 -123.5330 179° South 213 245 16,000 -60 Level
02:43PM 47.5508 -123.5320 173° South 213 245 15,900 -60 Descending D
02:44PM 47.4928 -123.5220 169° South 213 245 15,900  Level
02:45PM 47.4350 -123.5050 159° South 213 245 16,000 -60 Climbing C
02:46PM 47.3800 -123.4740 155° Southeast 218 251 15,800 -240 Descending D
02:47PM 47.3269 -123.4370 154° Southeast 218 251 15,600 -180 Descending D
02:48PM 47.2800 -123.4030 95° East 223 257 15,500 60 Descending D
02:49PM 47.2758 -123.3380 348° North 164 189 15,800 240 Climbing C
02:50PM 47.3275 -123.3540 337° Northwest 69 79 16,000 120 Climbing C
02:51PM 47.3764 -123.3850 340° North 104 120 16,100  Climbing C
02:52PM 47.4336 -123.4160 336° Northwest 174 200 16,100 -120 Level
02:53PM 47.4867 -123.4510 341° North 201 231 15,900 -180 Descending D
02:54PM 47.5422 -123.4790 344° North 207 238 15,800 -60 Descending D
02:55PM 47.5997 -123.5040 343° North 212 244 15,800  Level
02:56PM 47.6569 -123.5300 345° North 212 244 15,800 -180 Level
02:57PM 47.7125 -123.5520 North 212 244 15,500  Descending D
02:58PM 47.7733 -123.5410 351° North 207 238 15,800 240 Climbing C
02:59PM 47.8311 -123.5540 345° North 202 232 16,000 60 Climbing C
03:00PM 47.8886 -123.5770 351° North 207 238 16,000  Level
03:01PM 47.9467 -123.5910 349° North 207 238 16,000  Level
03:02PM 48.0144 -123.6110 347° North 212 244 16,000 -60 Level
03:03PM 48.0681 -123.6300 259° West 218 251 15,900 -60 Descending D
03:04PM 48.0569 -123.7130 167° South 174 200 15,900  Level
03:05PM 47.9850 -123.6890 156° South 100 115 16,000 -60 Climbing C
03:06PM 47.9178 -123.6440 159° South 196 226 15,800 -180 Descending D
03:07PM 47.8503 -123.6050 160° South 224 258 15,700  Descending D
03:08PM 47.7828 -123.5690 168° South 242 278 15,800 120 Climbing C
03:09PM 47.7128 -123.5460 164° South 255 293 16,000  Climbing C
03:10PM 47.6450 -123.5170 162° South 260 299 15,900 -180 Descending D
03:11PM 47.5753 -123.4840 163° South 260 299 15,700 -180 Descending D
03:12PM 47.5136 -123.4560 169° South 260 299 15,600 -120 Descending D
03:13PM 47.4436 -123.4350 171° South 260 299 15,500  Descending D
03:14PM 47.3733 -123.4180 166° South 260 299 15,600 60 Climbing C
03:15PM 47.3033 -123.3920 139° Southeast 260 299 15,700 120 Climbing C
03:16PM 47.2533 -123.3280 35° Northeast 255 293 15,900 180 Climbing C
03:17PM 47.3006 -123.2790 339° North 138 159 16,100 60 Climbing C
03:18PM 47.3639 -123.3140 342° North 134 154 16,100 -60 Level
03:19PM 47.4275 -123.3450 339° North 183 211 16,000  Descending D
03:20PM 47.4808 -123.3760 337° Northwest 219 252 16,100  Climbing C
03:21PM 47.5625 -123.4280 335° Northwest 254 292 16,000 -60 Descending D
03:22PM 47.6278 -123.4730 336° Northwest 254 292 16,000  Level
03:23PM 47.7011 -123.5210 349° North 265 305 16,100  Climbing C
03:24PM 47.7856 -123.5450 353° North 282 325 16,000 -120 Descending D
03:25PM 47.8706 -123.5600 353° North 297 342 15,900 -120 Descending D
03:26PM 47.9617 -123.5760 352° North 304 350 15,800 -60 Descending D
03:27PM 48.0297 -123.5900 354° North 304 350 15,800 -120 Level
03:28PM 48.1189 -123.6030 291° West 304 350 15,600  Descending D
03:29PM 48.1447 -123.7040 186° South 252 290 15,900 60 Climbing C
03:30PM 48.0672 -123.7170 158° South 123 142 15,800  Descending D
03:31PM 47.9958 -123.6740 158° South 175 201 16,000 120 Climbing C
03:32PM 47.9386 -123.6390 165° South 224 258 16,100  Climbing C
03:33PM 47.8483 -123.6020 169° South 253 291 16,100  Level
03:34PM 47.7742 -123.5810 171° South 266 306 16,100  Level
03:35PM 47.6956 -123.5630 169° South 266 306 16,200  Climbing C
03:36PM 47.6317 -123.5440 169° South 252 290 16,100 -60 Descending D
03:37PM 47.5594 -123.5230 173° South 259 298 16,100  Level
03:38PM 47.4850 -123.5090 167° South 259 298 16,200 60 Climbing C
03:39PM 47.4128 -123.4850 163° South 264 304 16,300  Climbing C
03:40PM 47.3411 -123.4530 161° South 269 310 16,300  Level
03:41PM 47.2733 -123.4180 85° East 269 310 16,300  Level
03:42PM 47.2778 -123.3390 338° Northwest 182 209 16,300  Level
03:43PM 47.3269 -123.3690 333° Northwest 55 63 16,300  Level
03:44PM 47.3758 -123.4060 329° Northwest 126 145 16,300  Level
03:45PM 47.4203 -123.4460 334° Northwest 160 184 16,300  Level
03:46PM 47.4672 -123.4800 355° North 174 200 16,300 -120 Level
03:47PM 47.5189 -123.4870 350° North 174 200 16,100 -60 Descending D
03:48PM 47.5664 -123.4990 353° North 163 188 16,200  Climbing C
03:49PM 47.6181 -123.5090 351° North 169 194 16,200  Level
03:50PM 47.6697 -123.5210 352° North 181 208 16,200  Level
03:51PM 47.7175 -123.5310 353° North 176 203 16,200  Level
03:52PM 47.7711 -123.5410 353° North 181 208 16,200  Level
03:53PM 47.8272 -123.5510 349° North 193 222 16,300 -60 Climbing C
03:54PM 47.8683 -123.5630 349° North 183 211 16,100 -120 Descending D
03:55PM 47.9117 -123.5760 347° North 162 186 16,100  Level
03:56PM 47.9672 -123.5950 350° North 173 199 16,100  Level
03:57PM 48.0333 -123.6120 297° West 208 239 16,100 -120 Level
03:58PM 48.0542 -123.6730 184° South 189 217 15,900 -60 Descending D
03:59PM 47.9914 -123.6800 162° South 90 104 16,000  Climbing C
04:00PM 47.9178 -123.6440 165° South 171 197 16,000  Level
04:01PM 47.8417 -123.6140 168° South 233 268 16,000  Level
04:02PM 47.7675 -123.5900 146° Southeast 272 313 16,100  Climbing C
04:03PM 47.7069 -123.5300 69° East 280 322 16,100  Level
04:04PM 47.7331 -123.4300 52° Northeast 196 226 16,100  Level
04:05PM 47.7794 -123.3410 53° Northeast 210 242 16,100  Level
04:06PM 47.8236 -123.2540 53° Northeast 233 268 16,100 -60 Level
04:07PM 47.8656 -123.1700 51° Northeast 248 285 16,000 -900 Descending D
04:08PM 47.9053 -123.0960 51° Northeast 243 280 14,300 -1,800 Descending D
04:09PM 47.9447 -123.0240 53° Northeast 233 268 12,500 -1,500 Descending D
04:10PM 47.9819 -122.9510 53° Northeast 228 262 11,400 -720 Descending D
04:11PM 48.0194 -122.8760 19° North 223 257 11,100 -180 Descending D
04:12PM 48.0678 -122.8510 307° West 198 228 11,100  Level
04:13PM 48.1056 -122.9250 202° Southwest 161 185 11,100  Level
04:14PM 48.0506 -122.9590 95° East 112 129 11,100  Level
04:15PM 48.0447 -122.8650 176° South 139 160 11,100  Level
04:16PM 47.9928 -122.8590 295° West 161 185 11,100  Level
04:17PM 48.0158 -122.9320 330° Northwest 80 92 11,100  Level
04:18PM 48.0708 -122.9790 55° Northeast 135 155 11,100  Level
04:19PM 48.1039 -122.9090 148° Southeast 127 146 11,100  Level
04:20PM 48.0367 -122.8460 149° Southeast 153 176 11,100 -120 Level
04:21PM 47.9656 -122.7830 148° Southeast 232 267 10,900 -660 Descending D
04:22PM 47.8986 -122.7210 149° Southeast 261 300 9,800 2,040 Descending D
04:23PM 47.8314 -122.6610 150° Southeast 277 319 15,000 -2,160 Climbing Seattle Center
04:24PM 47.7700 -122.6090 146° Southeast 277 319 5,500 -6,060 Descending D
04:25PM 47.7233 -122.5630 119° Southeast 247 284 2,900 -1,620 Descending D
04:26PM 47.6939 -122.4850 119° Southeast 221 254 2,300 -600 Descending D